Time;durP1;ratioP1;P1;durP2;ratioP2;P2;SDS_P1;SDS_P2;PMS_P1;PMS_P2;Temp;Humidity;BMP_temperature;BMP_pressure;BME280_temperature;BME280_humidity;BME280_pressure;Samples;Min_cycle;Max_cycle;Signal;HPM_P1;HPM_P2
2023/06/11 00:01:24;;;;;;;9.43;7.10;;;21.30;96.60;;;;;;5067249;28;20203;-78
2023/06/11 00:03:52;;;;;;;7.70;7.10;;;21.30;96.70;;;;;;5065251;28;20678;-76
2023/06/11 00:06:22;;;;;;;7.32;6.63;;;21.30;96.80;;;;;;5065911;28;20661;-75
2023/06/11 00:08:48;;;;;;;7.40;6.80;;;21.30;97.10;;;;;;5067874;28;20213;-76
2023/06/11 00:11:14;;;;;;;7.60;7.00;;;21.20;97.30;;;;;;5067155;28;20979;-77
2023/06/11 00:13:40;;;;;;;7.47;6.87;;;21.20;97.50;;;;;;5064969;28;20207;-75
2023/06/11 00:16:06;;;;;;;6.90;6.30;;;21.10;97.70;;;;;;5066205;28;20442;-76
2023/06/11 00:18:32;;;;;;;7.85;7.20;;;21.00;97.90;;;;;;5065863;28;20181;-78
2023/06/11 00:20:58;;;;;;;7.37;6.73;;;21.00;98.20;;;;;;5064451;28;20301;-76
2023/06/11 00:23:24;;;;;;;7.57;6.97;;;21.00;98.30;;;;;;5065604;28;20656;-76
2023/06/11 00:25:52;;;;;;;7.28;6.57;;;21.00;98.50;;;;;;5067861;28;20272;-75
2023/06/11 00:28:18;;;;;;;7.50;6.90;;;21.00;98.80;;;;;;5061231;28;20209;-74
2023/06/11 00:30:44;;;;;;;6.83;6.23;;;21.00;98.90;;;;;;5067459;28;20240;-78
2023/06/11 00:33:09;;;;;;;7.83;7.23;;;21.00;98.80;;;;;;5065563;28;20876;-78
2023/06/11 00:35:36;;;;;;;7.50;6.90;;;20.90;99.10;;;;;;5065430;28;20188;-80
2023/06/11 00:38:02;;;;;;;8.20;7.50;;;20.90;99.20;;;;;;5066390;28;20463;-79
2023/06/11 00:40:27;;;;;;;7.83;7.13;;;21.00;99.40;;;;;;5066784;28;20503;-76
2023/06/11 00:42:54;;;;;;;8.53;7.83;;;20.90;99.80;;;;;;5068277;28;20439;-77
2023/06/11 00:45:22;;;;;;;8.10;7.40;;;21.00;99.90;;;;;;5065611;28;20177;-77
2023/06/11 00:47:48;;;;;;;8.40;7.70;;;20.90;99.90;;;;;;5063112;28;20224;-76
2023/06/11 00:50:18;;;;;;;7.63;7.03;;;20.90;99.90;;;;;;5064196;28;20207;-77
2023/06/11 00:52:43;;;;;;;8.27;7.53;;;20.90;99.90;;;;;;5065403;28;20184;-77
2023/06/11 00:55:11;;;;;;;8.00;7.40;;;20.80;99.90;;;;;;5066080;28;20188;-78
2023/06/11 00:57:40;;;;;;;7.82;7.22;;;20.80;99.90;;;;;;5065620;28;20181;-78
2023/06/11 01:00:11;;;;;;;7.25;6.65;;;20.80;99.90;;;;;;5076167;28;20212;-77
2023/06/11 01:02:44;;;;;;;7.82;7.13;;;20.80;99.90;;;;;;5064954;28;20271;-79
2023/06/11 01:05:17;;;;;;;7.82;7.22;;;20.80;99.90;;;;;;5064143;28;20660;-76
2023/06/11 01:07:50;;;;;;;7.70;6.95;;;20.80;99.90;;;;;;5070995;28;20208;-76
2023/06/11 01:10:17;;;;;;;7.53;6.93;;;20.80;99.90;;;;;;5070920;28;20258;-76
2023/06/11 01:12:43;;;;;;;7.93;7.32;;;20.70;99.90;;;;;;5070074;28;20253;-76
2023/06/11 01:15:14;;;;;;;8.50;7.80;;;20.70;99.90;;;;;;5066588;28;20212;-77
2023/06/11 01:17:46;;;;;;;8.65;7.95;;;20.60;99.90;;;;;;5069019;28;20733;-73
2023/06/11 01:20:17;;;;;;;7.63;7.03;;;20.60;99.90;;;;;;5065209;28;20355;-77
2023/06/11 01:22:57;;;;;;;8.05;7.45;;;20.30;99.90;;;;;;5070155;28;20192;-77
2023/06/11 01:26:02;;;;;;;8.95;8.20;;;20.50;99.90;;;;;;5070877;28;20271;-77
2023/06/11 01:28:33;;;;;;;7.68;7.07;;;20.40;99.90;;;;;;5067833;28;20208;-77
2023/06/11 01:31:04;;;;;;;8.30;7.70;;;20.40;99.90;;;;;;5071579;28;20288;-76
2023/06/11 01:33:35;;;;;;;8.27;7.57;;;20.40;99.90;;;;;;5072735;28;20184;-77
2023/06/11 01:36:01;;;;;;;8.30;7.60;;;20.30;99.90;;;;;;5066478;28;20181;-75
2023/06/11 01:38:30;;;;;;;8.50;7.80;;;20.40;99.90;;;;;;5072004;28;20566;-76
2023/06/11 01:40:58;;;;;;;8.40;7.80;;;20.40;99.90;;;;;;5070611;28;20850;-77
2023/06/11 01:43:25;;;;;;;8.80;8.07;;;20.40;99.90;;;;;;5071512;28;20189;-76
2023/06/11 01:45:51;;;;;;;8.45;7.75;;;20.30;99.90;;;;;;5072357;28;20188;-77
2023/06/11 01:48:17;;;;;;;7.97;7.27;;;20.30;99.90;;;;;;5076296;28;20262;-78
2023/06/11 01:50:43;;;;;;;7.90;7.30;;;20.20;99.90;;;;;;5070563;28;20544;-79
2023/06/11 01:53:10;;;;;;;8.63;7.83;;;20.30;99.90;;;;;;5069943;28;20499;-76
2023/06/11 01:55:36;;;;;;;11.68;7.25;;;20.10;99.90;;;;;;5069479;28;20173;-77
2023/06/11 01:58:02;;;;;;;8.23;7.53;;;20.10;99.90;;;;;;5071301;28;20192;-74
2023/06/11 02:00:28;;;;;;;9.33;8.40;;;20.20;99.90;;;;;;5072232;28;20228;-76
2023/06/11 02:02:54;;;;;;;8.60;7.90;;;20.10;99.90;;;;;;5073192;28;20185;-76
2023/06/11 02:05:19;;;;;;;9.57;8.73;;;20.10;99.90;;;;;;5067290;28;20670;-76
2023/06/11 02:07:45;;;;;;;8.80;8.10;;;20.00;99.90;;;;;;5072799;28;20201;-76
2023/06/11 02:10:11;;;;;;;8.60;7.90;;;20.00;99.90;;;;;;5068970;28;20691;-76
2023/06/11 02:12:37;;;;;;;8.70;8.00;;;19.80;99.90;;;;;;5068733;28;20427;-77
2023/06/11 02:15:04;;;;;;;8.13;7.53;;;19.80;99.90;;;;;;5067628;28;20208;-78
2023/06/11 02:17:30;;;;;;;7.80;7.20;;;19.70;99.90;;;;;;5072049;28;20641;-76
2023/06/11 02:19:55;;;;;;;8.70;8.10;;;19.70;99.90;;;;;;5069275;28;20438;-76
2023/06/11 02:22:21;;;;;;;9.20;8.40;;;19.60;99.90;;;;;;5071267;28;20205;-79
2023/06/11 02:24:46;;;;;;;8.63;7.80;;;19.50;99.90;;;;;;5069887;28;20450;-76
2023/06/11 02:27:12;;;;;;;8.40;7.70;;;19.30;99.90;;;;;;5058796;28;20574;-76
2023/06/11 02:29:38;;;;;;;8.90;8.20;;;19.10;99.90;;;;;;5069668;28;20180;-75
2023/06/11 02:32:05;;;;;;;8.33;7.63;;;19.30;99.90;;;;;;5071207;28;20185;-76
2023/06/11 02:34:31;;;;;;;8.85;8.00;;;19.10;99.90;;;;;;5066747;28;20208;-76
2023/06/11 02:36:57;;;;;;;8.80;8.00;;;19.20;99.90;;;;;;5069040;28;20172;-74
2023/06/11 02:39:22;;;;;;;8.60;7.90;;;19.10;99.90;;;;;;5068090;28;20692;-75
2023/06/11 02:41:48;;;;;;;8.60;7.90;;;19.00;99.90;;;;;;5070022;28;20204;-74
2023/06/11 02:44:13;;;;;;;9.63;8.73;;;18.70;99.90;;;;;;5067328;28;20193;-74
2023/06/11 02:46:39;;;;;;;10.40;9.60;;;18.90;99.90;;;;;;5070233;28;20192;-74
2023/06/11 02:49:05;;;;;;;8.90;8.20;;;18.80;99.90;;;;;;5066811;28;20200;-74
2023/06/11 02:51:31;;;;;;;9.52;8.73;;;18.90;99.90;;;;;;5068478;28;20339;-75
2023/06/11 02:53:56;;;;;;;8.57;7.93;;;18.80;99.90;;;;;;5066949;28;21116;-75
2023/06/11 02:56:22;;;;;;;8.73;8.03;;;18.80;99.90;;;;;;5067605;28;20179;-75
2023/06/11 02:58:49;;;;;;;8.27;7.57;;;18.80;99.90;;;;;;5067317;28;20173;-75
2023/06/11 03:01:14;;;;;;;8.90;8.18;;;18.70;99.90;;;;;;5067736;28;21079;-75
2023/06/11 03:03:40;;;;;;;9.03;8.23;;;18.80;99.90;;;;;;5067998;28;20193;-75
2023/06/11 03:06:05;;;;;;;10.23;9.33;;;18.70;99.90;;;;;;5068230;28;20733;-74
2023/06/11 03:08:31;;;;;;;10.67;9.77;;;18.60;99.90;;;;;;5067564;28;20205;-74
2023/06/11 03:10:57;;;;;;;9.17;8.47;;;18.60;99.90;;;;;;5069197;28;20229;-75
2023/06/11 03:13:23;;;;;;;8.60;7.88;;;18.60;99.90;;;;;;5067850;28;20181;-75
2023/06/11 03:15:48;;;;;;;9.27;8.57;;;18.50;99.90;;;;;;5069327;28;20275;-75
2023/06/11 03:18:15;;;;;;;9.30;8.50;;;18.50;99.90;;;;;;5067445;28;20196;-75
2023/06/11 03:20:40;;;;;;;8.48;7.78;;;18.50;99.90;;;;;;5064834;28;20668;-75
2023/06/11 03:23:07;;;;;;;9.57;8.77;;;18.50;99.90;;;;;;5067198;28;20279;-75
2023/06/11 03:25:32;;;;;;;9.32;8.43;;;18.30;99.90;;;;;;5081862;28;20230;-75
2023/06/11 03:27:58;;;;;;;9.30;8.47;;;18.40;99.90;;;;;;5067752;28;20573;-75
2023/06/11 03:30:23;;;;;;;8.33;7.63;;;18.30;99.90;;;;;;5066551;28;20217;-75
2023/06/11 03:32:49;;;;;;;8.30;7.67;;;18.40;99.90;;;;;;5067483;28;20181;-75
2023/06/11 03:35:15;;;;;;;8.83;8.13;;;18.30;99.90;;;;;;5066303;28;20181;-75
2023/06/11 03:37:41;;;;;;;8.75;8.05;;;18.40;99.90;;;;;;5069051;28;20212;-75
2023/06/11 03:40:07;;;;;;;9.37;8.57;;;18.40;99.90;;;;;;5066806;28;20238;-75
2023/06/11 03:42:33;;;;;;;8.85;8.00;;;18.70;99.90;;;;;;5066887;28;20195;-75
2023/06/11 03:44:58;;;;;;;9.47;8.67;;;18.40;99.90;;;;;;5066369;28;20695;-75
2023/06/11 03:47:24;;;;;;;8.87;8.07;;;18.40;99.90;;;;;;5068535;28;20683;-75
2023/06/11 03:49:51;;;;;;;8.50;7.70;;;18.40;99.90;;;;;;5066144;28;20173;-74
2023/06/11 03:52:17;;;;;;;9.80;8.98;;;18.40;99.90;;;;;;5066993;28;20180;-75
2023/06/11 03:54:42;;;;;;;8.43;7.63;;;18.40;99.90;;;;;;5068798;28;20596;-75
2023/06/11 03:57:08;;;;;;;8.50;7.80;;;18.40;99.90;;;;;;5065797;28;20622;-75
2023/06/11 03:59:33;;;;;;;9.27;8.57;;;18.40;99.90;;;;;;5066117;28;20235;-75
2023/06/11 04:02:02;;;;;;;10.30;9.20;;;18.30;99.90;;;;;;5068224;28;20188;-75
2023/06/11 04:04:28;;;;;;;8.55;7.75;;;18.30;99.90;;;;;;5057384;28;20351;-75
2023/06/11 04:06:53;;;;;;;8.93;8.13;;;18.30;99.90;;;;;;5069584;28;20256;-75
2023/06/11 04:09:19;;;;;;;7.90;7.20;;;18.40;99.90;;;;;;5066927;28;20283;-75
2023/06/11 04:11:44;;;;;;;8.63;7.93;;;18.40;99.90;;;;;;5067186;28;20653;-75
2023/06/11 04:14:10;;;;;;;8.10;7.50;;;18.40;99.90;;;;;;5066250;28;20184;-75
2023/06/11 04:16:35;;;;;;;9.53;8.73;;;18.40;99.90;;;;;;5067788;28;20177;-75
2023/06/11 04:19:01;;;;;;;8.93;8.23;;;18.40;99.90;;;;;;5066251;28;20177;-74
2023/06/11 04:21:27;;;;;;;9.37;8.57;;;18.90;99.90;;;;;;5067211;28;20724;-73
2023/06/11 04:23:52;;;;;;;8.60;7.90;;;18.40;99.90;;;;;;5068105;28;20184;-74
2023/06/11 04:26:19;;;;;;;9.57;8.50;;;18.30;99.90;;;;;;5066589;28;20188;-74
2023/06/11 04:28:45;;;;;;;8.82;8.13;;;18.30;99.90;;;;;;5065770;28;20677;-74
2023/06/11 04:31:11;;;;;;;8.37;7.70;;;18.30;99.90;;;;;;5064594;28;20201;-74
2023/06/11 04:33:38;;;;;;;9.10;8.30;;;18.50;99.90;;;;;;5064020;28;20173;-74
2023/06/11 04:36:07;;;;;;;9.73;9.00;;;18.50;99.90;;;;;;5063148;28;20185;-74
2023/06/11 04:38:37;;;;;;;10.07;9.23;;;18.50;99.90;;;;;;5074903;28;20649;-75
2023/06/11 04:41:08;;;;;;;8.98;8.18;;;18.40;99.90;;;;;;5066406;28;21032;-74
2023/06/11 04:43:34;;;;;;;9.65;8.80;;;18.60;99.90;;;;;;5059052;28;20189;-74
2023/06/11 04:46:00;;;;;;;9.20;8.43;;;18.60;99.90;;;;;;5066358;28;20669;-74
2023/06/11 04:48:28;;;;;;;9.45;8.57;;;18.80;99.90;;;;;;5064444;28;20225;-74
2023/06/11 04:50:54;;;;;;;8.30;7.60;;;18.80;99.90;;;;;;5063714;28;20267;-74
2023/06/11 04:53:24;;;;;;;8.33;7.63;;;18.90;99.90;;;;;;5065504;28;20185;-74
2023/06/11 04:55:56;;;;;;;9.23;8.52;;;19.10;99.90;;;;;;5063907;28;20310;-74
2023/06/11 04:58:25;;;;;;;9.32;8.52;;;19.30;99.90;;;;;;5064272;28;20189;-75
2023/06/11 05:00:52;;;;;;;9.23;8.52;;;19.40;99.90;;;;;;5064594;28;20583;-75
2023/06/11 05:03:19;;;;;;;7.47;6.78;;;19.50;99.90;;;;;;5068027;28;20188;-75
2023/06/11 05:05:51;;;;;;;8.80;7.70;;;19.60;99.90;;;;;;5063336;28;20207;-75
2023/06/11 05:08:18;;;;;;;8.60;7.85;;;19.80;99.90;;;;;;5067328;28;20281;-75
2023/06/11 05:10:44;;;;;;;8.43;7.82;;;19.80;99.90;;;;;;5068028;28;20689;-73
2023/06/11 05:13:13;;;;;;;7.55;6.93;;;19.90;99.90;;;;;;5062944;28;20799;-74
2023/06/11 05:15:39;;;;;;;7.95;7.35;;;20.10;99.90;;;;;;5066166;28;20181;-73
2023/06/11 05:18:05;;;;;;;7.97;7.38;;;20.10;99.90;;;;;;5072125;28;20214;-75
2023/06/11 05:20:31;;;;;;;7.67;6.97;;;20.20;99.90;;;;;;5058640;28;20689;-75
2023/06/11 05:22:59;;;;;;;7.60;6.90;;;20.40;99.90;;;;;;5059891;28;20483;-75
2023/06/11 05:25:28;;;;;;;8.05;7.35;;;20.30;99.90;;;;;;5067661;28;20207;-73
2023/06/11 05:27:57;;;;;;;7.18;6.50;;;20.10;99.90;;;;;;5066209;28;20202;-75
2023/06/11 05:30:25;;;;;;;7.80;7.10;;;20.20;99.90;;;;;;5070278;28;20195;-75
2023/06/11 05:32:51;;;;;;;7.65;7.05;;;20.40;99.90;;;;;;5065236;28;20205;-75
2023/06/11 05:35:17;;;;;;;8.27;7.57;;;21.10;99.90;;;;;;5062711;28;20207;-74
2023/06/11 05:37:43;;;;;;;7.47;6.87;;;20.60;99.90;;;;;;5063836;28;20181;-74
2023/06/11 05:40:11;;;;;;;7.50;6.80;;;20.60;99.90;;;;;;5053550;28;20311;-74
2023/06/11 05:42:37;;;;;;;7.38;6.82;;;20.60;99.90;;;;;;5065209;28;20439;-74
2023/06/11 05:45:06;;;;;;;7.43;6.80;;;20.70;99.90;;;;;;5069242;28;20188;-74
2023/06/11 05:47:33;;;;;;;7.47;6.88;;;20.80;99.90;;;;;;5064191;28;20463;-74
2023/06/11 05:49:59;;;;;;;7.90;7.20;;;20.90;99.90;;;;;;5065583;28;20266;-74
2023/06/11 05:52:25;;;;;;;7.90;7.22;;;20.90;99.90;;;;;;5068993;28;20179;-74
2023/06/11 05:54:50;;;;;;;7.90;7.30;;;21.00;99.90;;;;;;5072991;28;20180;-73
2023/06/11 05:57:20;;;;;;;7.27;6.67;;;21.00;99.90;;;;;;5071600;28;20168;-73
2023/06/11 05:59:46;;;;;;;7.32;6.80;;;21.00;99.90;;;;;;5067227;28;20672;-73
2023/06/11 06:02:12;;;;;;;6.90;6.40;;;21.00;99.90;;;;;;5070866;28;20188;-74
2023/06/11 06:04:37;;;;;;;7.77;7.17;;;21.10;99.90;;;;;;5070609;28;20450;-74
2023/06/11 06:07:03;;;;;;;7.57;6.97;;;21.50;99.90;;;;;;5077183;28;20338;-74
2023/06/11 06:09:29;;;;;;;7.97;7.17;;;21.20;99.90;;;;;;5072800;28;20825;-74
2023/06/11 06:11:55;;;;;;;7.30;6.70;;;21.20;99.90;;;;;;5070961;28;20552;-75
2023/06/11 06:14:20;;;;;;;7.60;7.00;;;21.30;99.90;;;;;;5066260;28;20192;-74
2023/06/11 06:16:46;;;;;;;7.10;6.50;;;21.40;99.90;;;;;;5069804;28;20180;-74
2023/06/11 06:19:12;;;;;;;7.47;6.80;;;21.50;99.90;;;;;;5067573;28;20199;-74
2023/06/11 06:21:37;;;;;;;9.30;7.07;;;21.50;99.90;;;;;;5070943;28;20284;-75
2023/06/11 06:24:03;;;;;;;6.87;6.37;;;21.60;99.90;;;;;;5073018;28;20427;-75
2023/06/11 06:26:29;;;;;;;7.90;7.30;;;21.80;99.90;;;;;;5068926;28;20640;-75
2023/06/11 06:28:54;;;;;;;7.70;7.10;;;21.90;99.60;;;;;;5068632;28;21167;-76
2023/06/11 06:31:22;;;;;;;6.93;6.37;;;21.90;99.30;;;;;;5068665;28;20224;-75
2023/06/11 06:33:49;;;;;;;7.90;7.22;;;22.00;99.20;;;;;;5069759;28;20200;-74
2023/06/11 06:36:15;;;;;;;7.40;6.70;;;22.00;98.90;;;;;;5068816;28;20283;-74
2023/06/11 06:38:40;;;;;;;7.67;6.97;;;22.10;98.70;;;;;;5069270;28;20522;-75
2023/06/11 06:41:06;;;;;;;7.60;7.10;;;22.20;98.80;;;;;;5067418;28;20231;-75
2023/06/11 06:43:33;;;;;;;7.93;7.33;;;22.30;98.40;;;;;;5067017;28;20189;-75
2023/06/11 06:45:59;;;;;;;7.67;7.00;;;22.30;98.20;;;;;;5066829;28;20238;-75
2023/06/11 06:48:25;;;;;;;7.70;7.10;;;22.40;98.00;;;;;;5064218;28;20506;-75
2023/06/11 06:50:50;;;;;;;7.90;7.30;;;22.50;97.50;;;;;;5068678;28;20283;-76
2023/06/11 06:53:16;;;;;;;7.17;6.60;;;22.30;97.10;;;;;;5066398;28;20874;-76
2023/06/11 06:55:44;;;;;;;7.60;7.00;;;22.80;96.80;;;;;;5072540;28;20231;-75
2023/06/11 06:58:10;;;;;;;7.60;6.90;;;23.00;96.20;;;;;;5072148;28;20496;-74
2023/06/11 07:00:35;;;;;;;7.83;7.23;;;23.20;96.10;;;;;;5069609;28;20459;-74
2023/06/11 07:03:01;;;;;;;7.30;6.73;;;23.70;95.10;;;;;;5059775;28;20505;-75
2023/06/11 07:05:27;;;;;;;7.57;6.90;;;24.50;93.70;;;;;;5066956;28;20195;-71
2023/06/11 07:07:53;;;;;;;7.57;6.97;;;25.90;91.30;;;;;;5067923;28;20215;-72
2023/06/11 07:10:19;;;;;;;6.70;6.30;;;27.50;85.70;;;;;;5064474;28;20452;-70
2023/06/11 07:12:45;;;;;;;7.17;6.67;;;28.80;79.80;;;;;;5067081;28;20434;-72
2023/06/11 07:15:10;;;;;;;6.33;5.93;;;29.80;74.60;;;;;;5068163;28;20463;-71
2023/06/11 07:17:37;;;;;;;6.80;6.30;;;30.70;70.50;;;;;;5060003;28;20647;-71
2023/06/11 07:20:07;;;;;;;6.80;6.30;;;32.10;66.00;;;;;;5058856;28;20211;-71
2023/06/11 07:22:33;;;;;;;6.43;5.90;;;33.30;62.00;;;;;;5068747;28;20439;-74
2023/06/11 07:25:00;;;;;;;6.37;5.87;;;34.10;57.80;;;;;;5067160;28;20936;-75
2023/06/11 07:27:26;;;;;;;6.73;6.10;;;35.30;54.30;;;;;;5064210;28;20464;-75
2023/06/11 07:29:52;;;;;;;7.77;6.20;;;34.90;52.90;;;;;;5067424;28;20581;-74
2023/06/11 07:32:18;;;;;;;7.00;6.50;;;35.00;52.80;;;;;;5063269;28;20519;-75
2023/06/11 07:34:43;;;;;;;6.27;5.90;;;35.50;51.00;;;;;;5062321;28;20185;-75
2023/06/11 07:37:09;;;;;;;6.53;5.90;;;35.50;50.10;;;;;;5066585;28;20189;-75
2023/06/11 07:39:35;;;;;;;6.30;5.90;;;36.60;48.20;;;;;;5064265;28;20918;-74
2023/06/11 07:42:02;;;;;;;5.97;5.57;;;36.00;47.90;;;;;;5064150;28;20185;-74
2023/06/11 07:44:27;;;;;;;6.93;6.37;;;36.10;47.40;;;;;;5061266;28;20661;-75
2023/06/11 07:46:53;;;;;;;6.53;6.13;;;37.20;45.50;;;;;;5068086;28;20486;-75
2023/06/11 07:49:18;;;;;;;6.97;6.47;;;36.20;45.60;;;;;;5067066;28;20184;-72
2023/06/11 07:51:46;;;;;;;6.70;6.30;;;36.10;45.90;;;;;;5067034;28;20295;-72
2023/06/11 07:54:11;;;;;;;6.57;6.17;;;36.10;45.30;;;;;;5067036;28;20177;-73
2023/06/11 07:56:37;;;;;;;5.80;5.40;;;35.30;45.30;;;;;;5069109;28;20497;-72
2023/06/11 07:59:03;;;;;;;6.00;5.57;;;35.60;45.70;;;;;;5058881;28;20549;-73
2023/06/11 08:01:28;;;;;;;5.60;5.23;;;36.20;44.00;;;;;;5063903;28;20716;-73
2023/06/11 08:03:54;;;;;;;5.90;5.50;;;37.40;43.30;;;;;;5067676;28;20261;-73
2023/06/11 08:06:20;;;;;;;6.40;5.80;;;37.60;42.00;;;;;;5067689;28;20181;-73
2023/06/11 08:08:47;;;;;;;5.90;5.50;;;38.10;41.90;;;;;;5068862;28;20354;-74
2023/06/11 08:11:13;;;;;;;6.20;5.70;;;38.30;39.60;;;;;;5067520;28;20493;-74
2023/06/11 08:13:40;;;;;;;5.63;5.13;;;38.50;39.50;;;;;;5059674;28;20469;-73
2023/06/11 08:16:07;;;;;;;5.70;5.30;;;37.70;39.70;;;;;;5067263;28;20449;-73
2023/06/11 08:18:32;;;;;;;5.90;5.43;;;38.30;39.00;;;;;;5064762;28;20489;-73
2023/06/11 08:20:58;;;;;;;6.30;5.70;;;38.40;38.50;;;;;;5059800;28;20451;-74
2023/06/11 08:23:25;;;;;;;6.20;5.80;;;37.70;39.50;;;;;;5066475;28;20188;-73
2023/06/11 08:25:50;;;;;;;5.73;5.33;;;37.90;38.70;;;;;;5065963;28;20233;-73
2023/06/11 08:28:16;;;;;;;6.10;5.70;;;38.40;38.40;;;;;;5065919;28;20459;-72
2023/06/11 08:30:42;;;;;;;7.17;6.57;;;38.30;38.30;;;;;;5064058;28;20234;-72
2023/06/11 08:33:08;;;;;;;6.20;5.80;;;38.30;38.20;;;;;;5067764;28;20246;-72
2023/06/11 08:35:34;;;;;;;6.00;5.50;;;38.40;38.50;;;;;;5065928;28;20264;-73
2023/06/11 08:37:59;;;;;;;6.73;6.23;;;38.40;38.00;;;;;;5068224;28;21193;-73
2023/06/11 08:40:25;;;;;;;5.73;5.40;;;38.50;37.40;;;;;;5068020;28;20201;-73
2023/06/11 08:42:51;;;;;;;6.17;5.57;;;38.80;37.00;;;;;;5063481;28;20173;-73
2023/06/11 08:45:17;;;;;;;6.07;5.67;;;38.80;36.80;;;;;;5067718;28;20653;-74
2023/06/11 08:47:51;;;;;;;5.73;5.40;;;39.30;36.50;;;;;;5066991;28;20220;-74
2023/06/11 08:50:20;;;;;;;6.23;5.93;;;39.60;35.60;;;;;;5064909;28;20458;-74
2023/06/11 08:52:50;;;;;;;5.57;5.23;;;39.70;34.70;;;;;;5063323;28;20432;-74
2023/06/11 08:55:16;;;;;;;6.60;5.97;;;39.50;35.50;;;;;;5070978;28;20522;-73
2023/06/11 08:57:43;;;;;;;6.47;6.17;;;38.80;35.70;;;;;;5065645;28;20513;-74
2023/06/11 09:00:09;;;;;;;6.73;6.13;;;39.30;34.60;;;;;;5066300;28;20369;-73
2023/06/11 09:02:36;;;;;;;6.37;5.97;;;38.50;35.40;;;;;;5066838;28;20852;-74
2023/06/11 09:05:03;;;;;;;6.37;5.97;;;38.30;36.00;;;;;;5054383;28;20522;-73
2023/06/11 09:07:29;;;;;;;5.27;4.97;;;38.60;35.40;;;;;;5069843;28;20470;-73
2023/06/11 09:10:09;;;;;;;6.37;5.97;;;38.50;35.90;;;;;;5064884;28;20467;-73
2023/06/11 09:12:35;;;;;;;6.90;6.50;;;38.30;35.70;;;;;;5065757;28;20261;-72
2023/06/11 09:15:00;;;;;;;6.50;6.10;;;37.30;36.80;;;;;;5067918;28;20438;-73
2023/06/11 09:17:37;;;;;;;6.73;6.13;;;37.60;36.60;;;;;;5067682;28;20656;-73
2023/06/11 09:20:08;;;;;;;6.03;5.63;;;38.30;36.10;;;;;;5065069;28;20862;-74
2023/06/11 09:22:36;;;;;;;6.23;5.87;;;39.70;33.90;;;;;;5067303;28;20435;-73
2023/06/11 09:25:09;;;;;;;6.40;5.90;;;38.80;34.60;;;;;;5072270;28;20913;-74
2023/06/11 09:27:36;;;;;;;6.40;5.90;;;38.30;35.10;;;;;;5068867;28;20990;-74
2023/06/11 09:30:16;;;;;;;6.20;5.63;;;37.60;35.30;;;;;;5071849;28;20449;-72
2023/06/11 09:32:43;;;;;;;6.10;5.70;;;37.90;35.10;;;;;;5071784;28;20503;-74
2023/06/11 09:35:11;;;;;;;6.30;5.83;;;38.30;34.80;;;;;;5064895;28;20431;-74
2023/06/11 09:37:45;;;;;;;6.80;5.83;;;38.50;33.80;;;;;;5068575;28;20976;-74
2023/06/11 09:40:16;;;;;;;6.10;5.60;;;38.90;33.30;;;;;;5069730;28;20453;-74
2023/06/11 09:42:43;;;;;;;6.07;5.67;;;38.50;33.40;;;;;;5066401;28;20486;-73
2023/06/11 09:45:20;;;;;;;6.00;5.60;;;38.70;33.30;;;;;;5073406;28;20505;-73
2023/06/11 09:47:47;;;;;;;5.87;5.37;;;37.90;34.20;;;;;;5070041;28;20811;-74
2023/06/11 09:50:15;;;;;;;5.80;5.40;;;38.20;33.40;;;;;;5064980;28;20455;-74
2023/06/11 09:52:42;;;;;;;5.30;5.00;;;38.00;33.10;;;;;;5071934;28;20625;-73
2023/06/11 09:55:09;;;;;;;6.20;5.77;;;39.00;32.60;;;;;;5057189;28;20485;-74
2023/06/11 09:57:36;;;;;;;5.83;5.43;;;39.50;32.00;;;;;;5070948;28;20438;-74
2023/06/11 10:00:04;;;;;;;5.70;5.40;;;39.80;31.10;;;;;;5070949;28;21155;-74
2023/06/11 10:02:31;;;;;;;5.40;5.10;;;39.40;31.60;;;;;;5069205;28;20442;-73
2023/06/11 10:04:57;;;;;;;6.40;5.90;;;39.60;31.30;;;;;;5064812;28;20442;-73
2023/06/11 10:07:24;;;;;;;6.00;5.50;;;40.40;30.80;;;;;;5069239;28;20297;-74
2023/06/11 10:09:52;;;;;;;5.70;5.40;;;40.60;30.20;;;;;;5067557;28;20334;-74
2023/06/11 10:12:21;;;;;;;6.60;6.20;;;40.30;30.10;;;;;;5067620;28;20419;-74
2023/06/11 10:14:51;;;;;;;6.07;5.67;;;40.60;29.90;;;;;;5066877;28;20800;-74
2023/06/11 10:17:17;;;;;;;6.20;5.80;;;40.20;30.10;;;;;;5070035;28;20808;-74
2023/06/11 10:19:49;;;;;;;6.20;5.70;;;40.10;29.60;;;;;;5060705;28;20445;-74
2023/06/11 10:22:34;;;;;;;6.10;5.70;;;40.50;29.40;;;;;;5069338;28;20184;-74
2023/06/11 10:25:03;;;;;;;5.67;5.37;;;40.40;28.80;;;;;;5067283;28;20443;-73
2023/06/11 10:27:40;;;;;;;6.20;5.80;;;40.40;28.80;;;;;;5067272;28;20470;-74
2023/06/11 10:30:07;;;;;;;5.97;5.57;;;40.60;28.10;;;;;;5077150;28;20963;-73
2023/06/11 10:32:33;;;;;;;6.03;5.60;;;39.70;28.60;;;;;;5070447;28;20962;-74
2023/06/11 10:35:03;;;;;;;6.53;5.93;;;38.50;29.50;;;;;;5071329;28;20706;-72
2023/06/11 10:37:28;;;;;;;6.00;5.60;;;37.50;31.10;;;;;;5070224;28;20191;-74
2023/06/11 10:39:54;;;;;;;6.27;5.77;;;37.40;31.40;;;;;;5073875;28;20455;-74
2023/06/11 10:42:38;;;;;;;6.83;6.43;;;37.90;30.40;;;;;;5070913;28;20753;-72
2023/06/11 10:45:09;;;;;;;5.90;5.50;;;38.40;29.90;;;;;;5066438;28;20458;-75
2023/06/11 10:47:45;;;;;;;7.10;6.00;;;38.60;30.30;;;;;;5067552;28;20545;-73
2023/06/11 10:50:15;;;;;;;6.03;5.53;;;38.70;29.90;;;;;;5060785;28;20533;-72
2023/06/11 10:52:57;;;;;;;6.50;6.03;;;38.70;30.30;;;;;;5069564;28;21010;-73
2023/06/11 10:55:26;;;;;;;6.43;5.93;;;37.70;31.40;;;;;;5071643;28;20423;-72
2023/06/11 10:57:52;;;;;;;6.47;5.80;;;36.70;33.00;;;;;;5070316;28;20482;-74
2023/06/11 11:00:18;;;;;;;7.77;7.10;;;36.60;32.20;;;;;;5078741;28;20494;-74
2023/06/11 11:02:46;;;;;;;6.30;5.70;;;37.30;32.50;;;;;;5070033;28;20431;-72
2023/06/11 11:05:12;;;;;;;7.03;6.50;;;37.40;30.90;;;;;;5068435;28;20438;-74
2023/06/11 11:07:38;;;;;;;6.97;6.47;;;37.50;31.00;;;;;;5072218;28;20527;-72
2023/06/11 11:10:05;;;;;;;6.70;6.20;;;37.70;31.20;;;;;;5066851;28;20447;-74
2023/06/11 11:12:55;;;;;;;6.30;5.90;;;37.60;31.60;;;;;;5068934;28;20432;-73
2023/06/11 11:15:21;;;;;;;6.43;5.93;;;36.80;32.60;;;;;;5068648;28;20856;-73
2023/06/11 11:17:49;;;;;;;6.90;6.50;;;37.20;31.50;;;;;;5070959;28;20430;-73
2023/06/11 11:20:17;;;;;;;6.03;5.67;;;36.70;31.70;;;;;;5064948;28;20496;-73
2023/06/11 11:22:57;;;;;;;6.60;6.10;;;36.80;32.30;;;;;;5073910;28;20437;-73
2023/06/11 11:25:31;;;;;;;6.17;5.77;;;37.30;31.30;;;;;;5072202;28;20434;-72
2023/06/11 11:27:57;;;;;;;6.73;6.33;;;37.10;32.00;;;;;;5068403;28;21025;-72
2023/06/11 11:30:24;;;;;;;6.50;6.10;;;35.70;32.90;;;;;;5069588;28;20562;-72
2023/06/11 11:32:51;;;;;;;6.80;6.30;;;34.40;35.20;;;;;;5068927;28;20467;-72
2023/06/11 11:35:18;;;;;;;7.37;6.77;;;34.00;35.60;;;;;;5062640;28;20435;-72
2023/06/11 11:37:50;;;;;;;8.07;6.37;;;33.90;35.90;;;;;;5071241;28;20538;-73
2023/06/11 11:40:19;;;;;;;7.00;6.50;;;33.90;37.00;;;;;;5074388;28;20510;-72
2023/06/11 11:42:51;;;;;;;6.97;6.37;;;33.90;36.40;;;;;;5065594;28;20949;-74
2023/06/11 11:45:19;;;;;;;9.43;6.20;;;33.20;37.60;;;;;;5068631;28;20533;-72
2023/06/11 11:47:51;;;;;;;7.23;6.60;;;32.90;36.80;;;;;;5067103;28;20474;-72
2023/06/11 11:50:25;;;;;;;7.30;6.40;;;32.20;37.50;;;;;;5072478;28;20469;-74
2023/06/11 11:53:06;;;;;;;6.83;6.33;;;32.10;37.60;;;;;;5067485;28;20441;-73
2023/06/11 11:55:33;;;;;;;6.50;6.10;;;31.90;37.80;;;;;;5065360;28;20464;-72
2023/06/11 11:58:07;;;;;;;6.47;5.97;;;31.60;38.80;;;;;;5068719;28;20438;-73
2023/06/11 12:00:34;;;;;;;6.53;6.10;;;31.40;39.00;;;;;;5068804;28;20459;-73
2023/06/11 12:03:08;;;;;;;6.70;6.20;;;30.70;39.20;;;;;;5067681;28;20812;-73
2023/06/11 12:05:34;;;;;;;6.53;5.93;;;30.50;40.30;;;;;;5065461;28;20450;-74
2023/06/11 12:07:59;;;;;;;7.30;6.70;;;30.50;40.90;;;;;;5073035;28;20474;-72
2023/06/11 12:10:26;;;;;;;6.50;6.10;;;30.40;40.50;;;;;;5072529;28;20205;-74
2023/06/11 12:12:53;;;;;;;6.70;6.07;;;30.20;40.70;;;;;;5071923;28;20585;-75
2023/06/11 12:15:19;;;;;;;7.00;6.40;;;30.10;40.90;;;;;;5067255;28;20487;-74
2023/06/11 12:17:45;;;;;;;6.73;6.13;;;30.10;40.80;;;;;;5067237;28;20436;-72
2023/06/11 12:20:11;;;;;;;6.70;6.30;;;29.60;41.70;;;;;;5067815;28;20329;-72
2023/06/11 12:22:37;;;;;;;7.57;6.87;;;29.40;41.10;;;;;;5073639;28;20431;-73
2023/06/11 12:25:04;;;;;;;6.83;6.33;;;29.30;41.60;;;;;;5069070;28;20517;-74
2023/06/11 12:27:29;;;;;;;6.50;6.00;;;29.30;41.90;;;;;;5070529;28;20468;-74
2023/06/11 12:29:55;;;;;;;6.27;5.80;;;29.40;40.70;;;;;;5069056;28;20455;-72
2023/06/11 12:32:22;;;;;;;7.17;6.47;;;29.20;40.80;;;;;;5066724;28;20437;-72
2023/06/11 12:34:50;;;;;;;6.60;6.10;;;29.10;41.10;;;;;;5063022;28;20176;-72
2023/06/11 12:37:16;;;;;;;6.77;6.37;;;29.10;40.80;;;;;;5068172;28;20468;-71
2023/06/11 12:39:45;;;;;;;6.27;5.77;;;29.10;41.50;;;;;;5068098;28;20934;-72
2023/06/11 12:42:11;;;;;;;6.20;5.80;;;29.00;41.90;;;;;;5068315;28;20449;-72
2023/06/11 12:44:36;;;;;;;7.33;6.73;;;28.80;42.40;;;;;;5065961;28;20468;-73
2023/06/11 12:47:02;;;;;;;6.87;6.37;;;28.70;42.70;;;;;;5068453;28;20506;-72